Portada
METAR-TAF:

METAR-TAF

Aeropuertos :

Aeropuerto Internacional de Bamako-Modibo Keïta

Bamako, Malí

latitud: 12-32N, longitud: 007-57W, altitud: 380 m

Observación

El informe se hizo hace 36 minutos, a las 18:30 UTC
Viento 3 kt del noreste
Temperatura 31°C
Humedad 38%
Presión 1013 hPa
Visibilidad 10 km o más
sin nubes por debajo de 1500 m y sin presencia de cumulonimbus.

METAR: GABS 211830Z 05003KT CAVOK 31/15 Q1013 NOSIG

Hora: 19:06 (19:06 UTC)

Pronóstico

El informe se hizo hace 2 horas y 6 minutos, a las 17:00 UTC
Pronóstico válido del 21 a las 18 UTC al 22 a las 24 UTC
Viento 10 kt del noreste
Visibilidad: 8000 m
Probabilidad 30% :
Temporalmente
del 21 a las 18 UTC al 21 a las 22 UTC
Visibilidad: 4500 m
Polvo extendido
Probabilidad 40% :
Temporalmente
del 22 a las 06 UTC al 22 a las 12 UTC
Visibilidad: 4000 m
calima

TAF: GABS 211700Z 2118/2224 05010KT 8000 NSC PROB30 TEMPO 2118/2122 4500 DU PROB40 TEMPO 2206/2212 4000 HZ

Observaciones y pronósticos meteorológicos de más de 4000 aeropuertos (mensajes METAR y TAF).

Los puntos amarillos y rojos representan las estaciones disponibles.

Ponga el ratón en el punto deseado para ver el nombre de la estación.

Haga clic para ver las observaciones y los pronósticos meteorológicos.

Para cambiar el mapa : haga clic en los botones verdes con una cruz de color negro para hacer un zoom, en el botón verde con un guión para alejar o en las flechas verdes para mapas adyacentes.


METAR-TAF: